CheckWX is a tool to help pilots better visualize weather data.  It is not intended as a substitute for an official pre-flight weather briefing.

21:03:33 UTC

KEXX METAR
Davidson County Airport
Lexington, North Carolina, USA
Current

24 mins ago

KEXX 232040Z AUTO 21014G17KT 10SM CLR 29/11 A2996 RMK AO2 T02860109
Observed
Apr-23 @ 20:40 UTC
Wind
  • 210° at 14 KTS
  • Gusting to 17 KTS
Visibility
10 SM
Flight Rules
VFR
Cloud Levels
  • Clear skies
Temperature
29°C / 84°F
Dewpoint
11°C / 52°F
Humidity
33%
Altimeter
29.96" Hg
Pressure
1014.52 hPa
Previous

44 mins ago

KEXX 232020Z AUTO 22011G14KT 10SM CLR 29/11 A2997 RMK AO2 T02880106
Observed
Apr-23 @ 20:20 UTC
Wind
  • 220° at 11 KTS
  • Gusting to 14 KTS
Visibility
10 SM
Flight Rules
VFR
Cloud Levels
  • Clear skies
Temperature
29°C / 84°F
Dewpoint
11°C / 52°F
Humidity
33%
Altimeter
29.97" Hg
Pressure
1014.92 hPa
Previous

1 hour ago

KEXX 232000Z AUTO 18007KT 10SM CLR 29/11 A2997 RMK AO2 T02850109
Observed
Apr-23 @ 20:00 UTC
Wind
  • 180° at 7 KTS
Visibility
10 SM
Flight Rules
VFR
Cloud Levels
  • Clear skies
Temperature
29°C / 84°F
Dewpoint
11°C / 52°F
Humidity
33%
Altimeter
29.97" Hg
Pressure
1014.92 hPa